Latest Weather Observations for Tarcoola

IDS60801

Issued at 9:35 pm CST Thursday 21 August 2014 (issued every 30 minutes, with the page automatically refreshed every 10 minutes)

About weather observations | Map of weather stations | Latest weather observations for SA | Other Formats
Station Details ID: 016098 Name: TARCOOLA AERO Lat: -30.71 Lon: 134.58 Height: 123.0 m
Data from the previous 72 hours. | See also: Recent months at Tarcoola
Date/Time
CST
Temp
°C
App
Temp
°C
Dew
Point
Rel
Hum
%
Delta-T
°C
Wind Press
QNH
hPa
Press
MSL
hPa
Rain
since 9 am
mm
Dir
 
Spd
km/h
Gust
km/h
Spd
kts
Gust
kts
21/09:30pm 11.1 6.5 -4.5 33 5.7 ENE 11 15 6 8 1023.2 1023.2 0.0
21/09:00pm 10.6 5.5 -5.4 32 5.7 E 13 15 7 8 1023.1 1023.1 0.0
21/08:30pm 11.5 7.6 -5.0 31 6.0 ENE 7 7 4 4 1023.0 1023.0 0.0
21/08:00pm 12.1 8.1 -5.4 29 6.4 ENE 7 7 4 4 1022.8 1022.8 0.0
21/07:30pm 13.5 9.2 -5.1 27 6.9 NNE 9 9 5 5 1022.5 1022.5 0.0
21/07:00pm 14.7 10.4 -5.1 25 7.5 NNE 9 11 5 6 1022.2 1022.2 0.0
21/06:30pm 16.6 11.6 -4.6 23 8.3 NNE 13 15 7 8 1021.8 1021.8 0.0
21/06:00pm 18.8 13.4 -4.6 20 9.3 NNE 15 19 8 10 1021.5 1021.5 0.0
21/05:30pm 19.9 14.1 -5.1 18 10.0 N 17 22 9 12 1021.1 1021.1 0.0
21/05:00pm 20.5 14.7 -4.6 18 10.2 N 17 26 9 14 1020.8 1020.8 0.0
21/04:30pm 20.6 14.4 -4.5 18 10.2 ENE 19 24 10 13 1020.6 1020.6 0.0
21/04:00pm 20.4 14.2 -4.7 18 10.2 N 19 28 10 15 1020.5 1020.4 0.0
21/03:30pm 20.6 15.2 -4.5 18 10.2 NNE 15 24 8 13 1020.6 1020.6 0.0
21/03:00pm 21.0 16.0 -4.2 18 10.4 NNE 13 22 7 12 1020.9 1020.9 0.0
21/02:30pm 20.6 17.0 -3.8 19 10.1 NE 6 - 3 - - 1021.3 -
21/02:00pm 19.9 14.6 -3.7 20 9.7 N 15 20 8 11 1021.6 1021.6 0.0
21/01:30pm 19.9 13.6 -3.7 20 9.7 N 20 28 11 15 1021.9 1021.9 0.0
21/01:00pm 19.6 13.4 -3.3 21 9.5 N 20 28 11 15 1022.5 1022.5 0.0
21/12:30pm 18.8 12.8 -2.7 23 8.9 NNE 19 26 10 14 1023.1 1023.1 0.0
21/12:00pm 18.4 12.3 -2.5 24 8.7 N 20 32 11 17 1023.6 1023.6 0.0
21/11:30am 18.2 12.2 -1.6 26 8.3 N 20 32 11 17 1024.1 1024.1 0.0
21/11:00am 17.5 11.5 -1.2 28 7.9 NNE 20 32 11 17 1024.5 1024.5 0.0
21/10:30am 16.7 11.0 -0.5 31 7.3 NNE 19 28 10 15 1024.7 1024.7 0.0
21/10:00am 16.3 11.1 0.0 33 7.0 NNE 17 24 9 13 1024.7 1024.7 0.0
21/09:30am 14.5 10.8 0.0 37 6.1 N 9 15 5 8 1024.7 1024.7 0.0
21/09:00am 12.5 9.2 0.0 42 5.2 NNE 7 11 4 6 1024.7 1024.7 0.0
21/08:30am 10.4 7.1 -0.1 48 4.2 NE 7 11 4 6 1024.6 1024.6 0.0
21/08:00am 7.7 4.5 -0.5 56 3.2 ENE 6 9 3 5 1024.5 1024.5 0.0
21/07:30am 5.1 1.7 -0.9 65 2.2 NE 7 9 4 5 1024.3 1024.3 0.0
21/07:00am 3.9 0.0 -1.7 67 2.0 NE 9 11 5 6 1024.0 1024.0 0.0
21/06:30am 4.4 0.1 -1.4 66 2.1 NE 11 11 6 6 1023.7 1023.7 0.0
21/06:00am 5.0 1.5 -1.2 64 2.3 NE 7 9 4 5 1023.4 1023.4 0.0
21/05:30am 4.9 1.1 -0.9 66 2.2 ENE 9 11 5 6 1023.2 1023.2 0.0
21/05:00am 4.7 0.8 -1.3 65 2.2 NE 9 9 5 5 1023.2 1023.2 0.0
21/04:30am 5.3 1.5 -0.7 65 2.3 NE 9 11 5 6 1023.1 1023.1 0.0
21/04:00am 5.5 1.7 -0.5 65 2.3 ENE 9 9 5 5 1023.2 1023.2 0.0
21/03:30am 5.5 1.4 -0.5 65 2.3 ENE 11 11 6 6 1023.4 1023.4 0.0
21/03:00am 5.9 2.1 -0.4 64 2.4 ENE 9 13 5 7 1023.6 1023.6 0.0
21/02:30am 5.7 1.9 -0.8 63 2.4 ENE 9 11 5 6 1023.8 1023.8 0.0
21/02:00am 6.2 2.0 -0.7 61 2.6 E 11 13 6 7 1023.9 1023.9 0.0
21/01:30am 6.9 2.1 -0.1 61 2.7 E 15 15 8 8 1024.0 1024.0 0.0
21/01:00am 6.4 2.5 -1.2 58 2.9 ENE 9 9 5 5 1024.1 1024.1 0.0
21/12:30am 7.8 4.0 -0.4 56 3.2 ENE 9 11 5 6 1024.2 1024.2 0.0
21/12:00am 7.9 4.1 -0.6 55 3.3 NNE 9 11 5 6 1024.3 1024.3 0.0
 
Date/Time
CST
Temp
°C
App
Temp
°C
Dew
Point
Rel
Hum
%
Delta-T
°C
Wind Press
QNH
hPa
Press
MSL
hPa
Rain
since 9 am
mm
Dir
 
Spd
km/h
Gust
km/h
Spd
kts
Gust
kts
20/11:30pm 9.0 4.8 -0.6 51 3.8 ENE 11 13 6 7 1024.3 1024.3 0.0
20/11:00pm 10.4 5.6 0.2 49 4.2 E 15 17 8 9 1024.3 1024.3 0.0
20/10:30pm 11.0 6.6 0.1 47 4.4 E 13 17 7 9 1024.4 1024.4 0.0
20/10:00pm 11.7 7.3 0.2 45 4.8 E 13 17 7 9 1024.4 1024.4 0.0
20/09:30pm 12.5 7.4 0.6 44 5.0 E 17 20 9 11 1024.3 1024.3 0.0
20/09:00pm 12.9 8.1 0.3 42 5.3 ESE 15 20 8 11 1024.3 1024.3 0.0
20/08:30pm 13.5 8.7 0.2 40 5.6 E 15 19 8 10 1024.2 1024.2 0.0
20/08:00pm 14.0 9.2 -0.1 38 5.9 ESE 15 19 8 10 1023.9 1023.9 0.0
20/07:30pm 14.5 10.0 -0.4 36 6.2 ESE 13 15 7 8 1023.6 1023.6 0.0
20/07:00pm 15.3 10.4 -0.4 34 6.6 ESE 15 17 8 9 1023.2 1023.2 0.0
20/06:30pm 16.1 11.5 -1.0 31 7.2 ESE 13 17 7 9 1022.9 1022.9 0.0
20/06:00pm 17.2 12.9 -1.4 28 7.8 ESE 11 17 6 9 1022.7 1022.7 0.0
20/05:30pm 18.3 14.1 -1.0 27 8.2 E 11 19 6 10 1022.4 1022.4 0.0
20/05:00pm 18.5 13.9 -1.3 26 8.5 ESE 13 20 7 11 1022.3 1022.3 0.0
20/04:30pm 18.7 14.8 -1.2 26 8.5 ESE 9 17 5 9 1022.1 1022.1 0.0
20/04:00pm 19.0 15.2 -0.9 26 8.6 E 9 20 5 11 1022.0 1022.0 0.0
20/03:30pm 19.5 15.7 -0.5 26 8.7 ESE 9 20 5 11 1022.0 1022.0 0.0
20/03:00pm 19.2 15.8 -0.7 26 8.6 ENE 7 15 4 8 1022.0 1022.0 0.0
20/02:30pm 19.5 16.3 -0.5 26 8.7 ENE 6 15 3 8 1022.2 1022.2 0.0
20/02:00pm 19.1 14.6 -0.3 27 8.5 ENE 13 24 7 13 1022.5 1022.5 0.0
20/01:30pm 18.7 15.1 0.3 29 8.1 E 9 17 5 9 1023.0 1023.0 0.0
20/01:00pm 18.6 12.9 0.7 30 8.0 E 20 24 11 13 1023.4 1023.4 0.0
20/12:30pm 17.7 14.5 0.8 32 7.4 SE 7 15 4 8 1024.1 1024.1 0.0
20/12:00pm 17.5 13.9 0.6 32 7.4 NNE 9 17 5 9 1024.7 1024.7 0.0
20/11:30am 16.5 11.7 0.2 33 7.0 NNE 15 22 8 12 1025.3 1025.3 0.0
20/11:00am 16.4 11.7 0.9 35 6.8 NE 15 26 8 14 1025.6 1025.6 0.0
20/10:30am 15.6 10.9 1.0 37 6.3 NE 15 20 8 11 1025.9 1025.9 0.0
20/10:00am 14.7 10.4 1.3 40 5.8 ENE 13 17 7 9 1026.1 1026.1 0.0
20/09:30am 13.1 7.7 1.5 45 5.0 ENE 19 22 10 12 1026.1 1026.1 0.0
20/09:00am 12.0 7.4 1.3 48 4.5 E 15 22 8 12 1026.2 1026.2 0.0
20/08:30am 10.3 5.3 1.4 54 3.7 ENE 17 22 9 12 1025.9 1025.9 0.0
20/08:00am 8.9 3.9 1.1 58 3.2 E 17 22 9 12 1025.6 1025.6 0.0
20/07:30am 7.0 2.3 0.7 64 2.5 E 15 19 8 10 1025.3 1025.3 0.0
20/07:00am 5.8 1.0 0.2 67 2.2 E 15 17 8 9 1025.0 1025.0 0.0
20/06:30am 6.2 1.4 0.1 65 2.4 E 15 19 8 10 1024.6 1024.6 0.0
20/06:00am 6.4 1.6 0.1 64 2.4 E 15 19 8 10 1024.4 1024.4 0.0
20/05:30am 6.9 2.5 0.1 62 2.7 E 13 17 7 9 1024.3 1024.3 0.0
20/05:00am 7.3 2.5 0.3 61 2.8 E 15 20 8 11 1024.2 1024.2 0.0
20/04:30am 7.7 2.1 0.2 59 3.0 E 19 26 10 14 1024.1 1024.1 0.0
20/04:00am 7.9 2.7 0.2 58 3.1 E 17 24 9 13 1023.9 1023.9 0.0
20/03:30am 8.3 3.1 0.3 57 3.2 E 17 24 9 13 1023.9 1023.9 0.0
20/03:00am 9.0 3.3 0.5 55 3.4 E 20 26 11 14 1024.0 1024.0 0.0
20/02:30am 8.9 3.7 0.4 55 3.4 E 17 22 9 12 1024.3 1024.3 0.0
20/02:00am 9.2 4.4 0.1 53 3.7 E 15 19 8 10 1024.4 1024.4 0.0
20/01:30am 6.6 2.8 -0.6 60 2.8 NNE 9 11 5 6 1024.3 1024.3 0.0
20/01:00am 7.2 3.1 -0.5 58 3.0 NE 11 13 6 7 1024.3 1024.3 0.0
20/12:30am 8.1 4.3 -0.4 55 3.3 NE 9 11 5 6 1024.3 1024.3 0.0
20/12:00am 9.2 5.1 -0.4 51 3.8 NE 11 15 6 8 1024.4 1024.4 0.0
 
Date/Time
CST
Temp
°C
App
Temp
°C
Dew
Point
Rel
Hum
%
Delta-T
°C
Wind Press
QNH
hPa
Press
MSL
hPa
Rain
since 9 am
mm
Dir
 
Spd
km/h
Gust
km/h
Spd
kts
Gust
kts
19/11:30pm 9.9 5.6 0.8 53 3.7 N 13 17 7 9 1024.4 1024.4 0.0
19/11:00pm 10.5 6.5 0.5 50 4.1 E 11 13 6 7 1024.3 1024.3 0.0
19/10:30pm 10.6 6.2 0.3 49 4.2 E 13 15 7 8 1024.4 1024.4 0.0
19/10:00pm 11.3 6.9 0.1 46 4.6 E 13 15 7 8 1024.3 1024.3 0.0
19/09:30pm 12.7 7.6 0.5 43 5.1 E 17 20 9 11 1024.2 1024.2 0.0
19/09:00pm 13.4 8.2 0.1 40 5.5 E 17 20 9 11 1024.2 1024.2 0.0
19/08:30pm 11.0 7.1 -1.7 41 5.0 E 9 9 5 5 1023.9 1023.9 0.0
19/08:00pm 12.3 8.5 -0.9 40 5.4 ENE 9 9 5 5 1023.7 1023.7 0.0
19/07:30pm 13.2 9.3 -1.2 37 5.8 E 9 11 5 6 1023.5 1023.5 0.0
19/07:00pm 14.7 10.9 -1.0 34 6.5 E 9 13 5 7 1023.3 1023.3 0.0
19/06:30pm 16.0 13.1 -1.1 31 7.1 E 4 6 2 3 1023.1 1023.1 0.0
19/06:00pm 17.5 14.6 -1.2 28 7.9 NE 4 9 2 5 1022.9 1022.9 0.0
19/05:30pm 18.5 16.0 -0.8 27 8.3 NE 2 9 1 5 1022.8 1022.8 0.0
19/05:00pm 19.1 15.7 -0.3 27 8.5 E 7 15 4 8 1022.7 1022.7 0.0
19/04:30pm 18.9 14.8 -0.5 27 8.4 ENE 11 17 6 9 1022.6 1022.6 0.0
19/04:00pm 18.9 14.4 -0.5 27 8.5 NNE 13 20 7 11 1022.8 1022.8 0.0
19/03:30pm 19.6 15.1 -0.4 26 8.7 NE 13 17 7 9 1023.0 1023.0 0.0
19/03:00pm 19.1 15.7 -0.3 27 8.5 NNW 7 13 4 7 1023.2 1023.2 0.0
19/02:30pm 19.5 15.9 0.5 28 8.5 S 9 17 5 9 1023.4 1023.4 0.0
19/02:00pm 18.3 15.1 -0.5 28 8.1 E 6 11 3 6 1023.5 1023.5 0.0
19/01:30pm 19.6 16.1 1.1 29 8.3 E 9 20 5 11 1023.7 1023.7 0.0
19/01:00pm 18.7 14.3 0.3 29 8.1 NNE 13 20 7 11 1024.2 1024.2 0.0
19/12:30pm 18.4 13.6 0.5 30 7.9 N 15 24 8 13 1024.7 1024.7 0.0
19/12:00pm 17.7 13.3 0.4 31 7.6 NE 13 26 7 14 1025.2 1025.2 0.0
19/11:30am 17.4 13.1 1.0 33 7.2 NNE 13 20 7 11 1025.7 1025.7 0.0
19/11:00am 17.2 12.5 0.8 33 7.2 NNE 15 20 8 11 1026.1 1026.1 0.0
19/10:30am 16.4 11.5 1.7 37 6.5 NNE 17 24 9 13 1026.4 1026.4 0.0
19/10:00am 15.8 10.4 1.2 37 6.4 NE 19 28 10 15 1026.6 - 0.0
19/09:30am 14.6 9.1 0.8 39 5.9 NE 19 24 10 13 1026.7 1026.7 0.0
19/09:00am 13.9 9.0 2.2 45 5.1 ENE 17 22 9 12 1026.5 1026.5 0.0
19/08:30am 12.3 8.3 2.7 52 4.2 ENE 13 17 7 9 1026.2 1026.2 0.0
19/08:00am 8.9 5.6 2.7 65 2.6 ENE 9 11 5 6 1026.0 - 0.0
19/07:30am 5.8 2.8 2.3 78 1.4 ENE 7 9 4 5 1025.7 1025.7 0.0
19/07:00am 5.0 1.6 1.8 80 1.3 NE 9 9 5 5 1025.6 - 0.0
19/06:30am 5.5 2.6 2.5 81 1.2 ENE 7 11 4 6 1025.3 1025.3 0.0
19/06:00am 7.2 3.8 4.0 80 1.4 E 11 13 6 7 1025.1 1025.1 0.0
19/05:30am 5.6 2.6 2.3 79 1.3 ENE 7 9 4 5 1025.0 1025.0 0.0
19/05:00am 6.4 3.6 2.9 78 1.5 ENE 7 11 4 6 1024.9 - 0.0
19/04:30am 6.7 4.0 2.4 74 1.8 E 6 7 3 4 1025.0 1025.0 0.0
19/04:00am 7.6 5.0 4.0 78 1.6 ESE 7 11 4 6 1024.9 - 0.0
19/03:30am 3.5 -0.6 -2.7 64 2.2 ESE 9 11 5 6 1024.9 1024.9 0.0
19/03:00am 3.9 0.5 -2.3 64 2.2 ESE 6 7 3 4 1025.1 1025.1 0.0
19/02:30am 3.9 0.0 -1.7 67 2.0 S 9 15 5 8 1025.2 1025.2 0.0
19/02:00am 4.1 0.5 -1.9 65 2.2 SW 7 7 4 4 1025.3 - 0.0
19/01:30am 5.2 1.9 -1.5 62 2.5 SW 6 7 3 4 1025.5 1025.5 0.0
19/01:00am 5.6 2.1 -1.5 60 2.6 SW 7 9 4 5 1025.6 - 0.0
19/12:30am 6.7 2.6 -0.1 62 2.6 SSW 11 15 6 8 1025.5 1025.5 0.0
19/12:00am 5.1 1.6 -2.7 57 2.8 NE 6 7 3 4 1025.4 1025.4 0.0
 
Date/Time
CST
Temp
°C
App
Temp
°C
Dew
Point
Rel
Hum
%
Delta-T
°C
Wind Press
QNH
hPa
Press
MSL
hPa
Rain
since 9 am
mm
Dir
 
Spd
km/h
Gust
km/h
Spd
kts
Gust
kts
18/11:30pm 5.7 2.3 -2.1 57 2.8 ENE 6 7 3 4 1025.4 1025.4 0.0
18/11:00pm 6.8 3.4 -1.8 54 3.2 NE 6 11 3 6 1025.4 - 0.0
18/10:30pm 8.0 4.8 -0.7 54 3.4 ENE 6 7 3 4 1025.3 1025.3 0.0
18/10:00pm 7.6 3.5 -3.3 46 4.0 E 9 9 5 5 1025.3 - 0.0

Other Formats:

Comma delimited format used in spreadsheet applications
http://www.bom.gov.au/fwo/IDS60801/IDS60801.94655.axf

JavaScript Object Notation format (JSON) in row-major order
http://www.bom.gov.au/fwo/IDS60801/IDS60801.94655.json